Time;durP1;ratioP1;P1;durP2;ratioP2;P2;SDS_P1;SDS_P2;PMS_P1;PMS_P2;Temp;Humidity;BMP_temperature;BMP_pressure;BME280_temperature;BME280_humidity;BME280_pressure;Samples;Min_cycle;Max_cycle;Signal;HPM_P1;HPM_P2
2023/06/19 00:00:12;;;;;;;18.00;15.73;;;21.00;99.90;;;;;;4970528;28;20456;-72
2023/06/19 00:02:39;;;;;;;21.13;15.00;;;20.90;99.90;;;;;;4970179;28;20478;-72
2023/06/19 00:05:06;;;;;;;19.43;16.30;;;20.80;99.90;;;;;;4969979;28;20502;-71
2023/06/19 00:07:32;;;;;;;17.27;15.50;;;20.60;99.90;;;;;;4970228;28;20456;-71
2023/06/19 00:09:59;;;;;;;18.00;15.27;;;20.50;99.90;;;;;;4971142;28;20456;-72
2023/06/19 00:12:25;;;;;;;18.70;14.60;;;20.50;99.90;;;;;;4969459;28;20479;-72
2023/06/19 00:14:53;;;;;;;16.13;14.50;;;20.40;99.90;;;;;;4970339;28;20866;-72
2023/06/19 00:17:20;;;;;;;18.60;15.47;;;20.30;99.90;;;;;;4969853;28;20479;-72
2023/06/19 00:19:48;;;;;;;23.07;15.57;;;20.30;99.90;;;;;;4970211;28;20456;-72
2023/06/19 00:22:15;;;;;;;19.23;16.63;;;20.30;99.90;;;;;;4969922;28;20431;-72
2023/06/19 00:24:41;;;;;;;18.73;16.20;;;20.20;99.90;;;;;;4970165;28;20509;-72
2023/06/19 00:27:08;;;;;;;19.13;16.37;;;20.20;99.90;;;;;;4969777;28;20929;-72
2023/06/19 00:29:35;;;;;;;17.67;15.57;;;20.20;99.90;;;;;;4969620;28;20542;-72
2023/06/19 00:32:03;;;;;;;22.50;16.10;;;20.20;99.90;;;;;;4969534;28;20506;-72
2023/06/19 00:34:31;;;;;;;17.23;14.90;;;20.30;99.90;;;;;;4969790;28;20467;-72
2023/06/19 00:36:59;;;;;;;17.60;14.60;;;20.30;99.90;;;;;;4969776;28;20479;-72
2023/06/19 00:39:27;;;;;;;17.07;14.37;;;20.40;99.90;;;;;;4969576;28;20612;-72
2023/06/19 00:41:54;;;;;;;20.63;14.50;;;20.40;99.90;;;;;;4969476;28;20444;-72
2023/06/19 00:44:20;;;;;;;19.17;13.37;;;20.40;99.90;;;;;;4969227;28;20483;-72
2023/06/19 00:46:47;;;;;;;15.40;12.83;;;20.50;99.90;;;;;;4969200;28;20456;-72
2023/06/19 00:49:16;;;;;;;18.13;14.00;;;20.50;99.90;;;;;;4969212;28;20542;-72
2023/06/19 00:51:43;;;;;;;15.90;13.70;;;20.50;99.90;;;;;;4969312;28;20452;-72
2023/06/19 00:54:10;;;;;;;17.67;13.93;;;20.50;99.90;;;;;;4968548;28;20483;-72
2023/06/19 00:56:40;;;;;;;15.10;13.13;;;20.50;99.90;;;;;;4969144;28;20503;-72
2023/06/19 00:59:12;;;;;;;16.23;13.90;;;20.50;99.90;;;;;;4969736;28;20822;-72
2023/06/19 01:01:40;;;;;;;15.47;13.87;;;20.50;99.90;;;;;;4969283;28;20459;-72
2023/06/19 01:04:06;;;;;;;15.87;14.17;;;20.50;99.90;;;;;;4969491;28;20476;-72
2023/06/19 01:06:47;;;;;;;17.17;13.43;;;20.50;99.90;;;;;;4969198;28;20449;-72
2023/06/19 01:09:18;;;;;;;14.40;12.90;;;20.40;99.90;;;;;;4969675;28;20502;-72
2023/06/19 01:11:48;;;;;;;15.87;13.87;;;20.40;99.90;;;;;;4969115;28;20539;-72
2023/06/19 01:14:19;;;;;;;21.27;14.57;;;20.40;99.90;;;;;;4968827;28;20507;-72
2023/06/19 01:16:46;;;;;;;16.43;14.00;;;20.30;99.90;;;;;;4968496;28;21024;-72
2023/06/19 01:19:16;;;;;;;20.23;13.60;;;20.30;99.90;;;;;;4969672;28;20464;-72
2023/06/19 01:21:45;;;;;;;16.30;14.70;;;20.30;99.90;;;;;;4968923;28;20456;-72
2023/06/19 01:24:13;;;;;;;14.53;13.03;;;20.20;99.90;;;;;;4968361;28;21007;-72
2023/06/19 01:26:40;;;;;;;17.20;14.07;;;20.30;99.90;;;;;;4969378;28;20503;-72
2023/06/19 01:29:07;;;;;;;14.90;13.27;;;20.30;99.90;;;;;;4969305;28;20427;-72
2023/06/19 01:31:37;;;;;;;15.90;14.13;;;20.20;99.90;;;;;;4968265;28;20459;-72
2023/06/19 01:34:07;;;;;;;15.97;14.20;;;20.20;99.90;;;;;;4968745;28;20519;-72
2023/06/19 01:36:34;;;;;;;16.07;13.50;;;20.20;99.90;;;;;;4968255;28;21007;-72
2023/06/19 01:39:01;;;;;;;15.07;13.57;;;20.20;99.90;;;;;;4968507;28;20460;-72
2023/06/19 01:41:32;;;;;;;15.70;14.10;;;20.10;99.90;;;;;;4967977;28;20935;-72
2023/06/19 01:44:00;;;;;;;15.37;13.67;;;20.10;99.90;;;;;;4967925;28;20476;-72
2023/06/19 01:46:27;;;;;;;15.13;13.20;;;20.10;99.90;;;;;;4968943;28;20464;-72
2023/06/19 01:48:54;;;;;;;14.80;12.90;;;20.10;99.90;;;;;;4968528;28;20503;-72
2023/06/19 01:51:20;;;;;;;18.83;13.50;;;20.10;99.90;;;;;;4968069;28;20456;-72
2023/06/19 01:53:47;;;;;;;15.63;13.17;;;20.10;99.90;;;;;;4968050;28;20472;-72
2023/06/19 01:56:14;;;;;;;14.53;12.73;;;20.10;99.90;;;;;;4967706;28;20582;-73
2023/06/19 01:58:42;;;;;;;18.40;13.80;;;20.10;99.90;;;;;;4967501;28;20482;-71
2023/06/19 02:01:08;;;;;;;14.90;13.40;;;20.10;99.90;;;;;;4968451;28;20945;-72
2023/06/19 02:03:35;;;;;;;16.83;14.00;;;20.10;99.90;;;;;;4967949;28;20614;-72
2023/06/19 02:06:01;;;;;;;15.13;13.10;;;20.10;99.90;;;;;;4967929;28;20460;-72
2023/06/19 02:08:28;;;;;;;14.97;12.93;;;20.00;99.90;;;;;;4967833;28;20434;-72
2023/06/19 02:10:55;;;;;;;15.97;13.47;;;20.10;99.90;;;;;;4967298;28;20970;-73
2023/06/19 02:13:21;;;;;;;17.77;14.83;;;20.00;99.90;;;;;;4966976;28;20511;-72
2023/06/19 02:15:49;;;;;;;21.13;14.57;;;20.00;99.90;;;;;;4967589;28;20506;-72
2023/06/19 02:18:16;;;;;;;15.60;13.60;;;20.00;99.90;;;;;;4967671;28;20988;-72
2023/06/19 02:20:42;;;;;;;16.20;13.83;;;20.00;99.90;;;;;;4967414;28;20439;-72
2023/06/19 02:23:09;;;;;;;15.43;13.73;;;20.00;99.90;;;;;;4967775;28;20475;-72
2023/06/19 02:25:36;;;;;;;22.40;14.47;;;20.00;99.90;;;;;;4966941;28;21168;-72
2023/06/19 02:28:03;;;;;;;15.67;14.00;;;20.00;99.90;;;;;;4967922;28;20440;-72
2023/06/19 02:30:30;;;;;;;16.97;14.33;;;20.00;99.90;;;;;;4967744;28;20464;-72
2023/06/19 02:32:58;;;;;;;16.00;14.37;;;20.00;99.90;;;;;;4967301;28;20472;-72
2023/06/19 02:35:24;;;;;;;14.13;12.63;;;20.00;99.90;;;;;;4967309;28;20464;-72
2023/06/19 02:37:51;;;;;;;13.83;12.20;;;20.00;99.90;;;;;;4967677;28;20491;-72
2023/06/19 02:40:17;;;;;;;14.70;12.43;;;19.90;99.90;;;;;;4967334;28;20427;-72
2023/06/19 02:42:44;;;;;;;17.90;13.50;;;19.80;99.90;;;;;;4967209;28;20527;-72
2023/06/19 02:45:11;;;;;;;18.20;14.00;;;19.80;99.90;;;;;;4967784;28;20484;-72
2023/06/19 02:47:37;;;;;;;16.20;13.63;;;19.80;99.90;;;;;;4967518;28;20444;-72
2023/06/19 02:50:07;;;;;;;20.10;12.90;;;19.80;99.90;;;;;;4967679;28;20460;-71
2023/06/19 02:52:33;;;;;;;13.23;11.93;;;19.80;99.90;;;;;;4967413;28;20568;-72
2023/06/19 02:55:00;;;;;;;14.13;12.03;;;19.80;99.90;;;;;;4967466;28;20961;-72
2023/06/19 02:57:26;;;;;;;15.90;11.80;;;19.80;99.90;;;;;;4967684;28;20566;-72
2023/06/19 02:59:53;;;;;;;12.90;11.20;;;19.90;99.90;;;;;;4967877;28;20456;-72
2023/06/19 03:02:20;;;;;;;12.83;11.47;;;19.90;99.90;;;;;;4967841;28;20479;-72
2023/06/19 03:04:46;;;;;;;12.13;10.40;;;19.90;99.90;;;;;;4971555;28;20503;-71
2023/06/19 03:07:14;;;;;;;14.73;11.50;;;19.90;99.90;;;;;;4971430;28;20447;-71
2023/06/19 03:09:41;;;;;;;14.73;10.80;;;19.80;99.90;;;;;;4970754;28;20944;-71
2023/06/19 03:12:09;;;;;;;17.13;12.50;;;19.80;99.90;;;;;;4971004;28;20501;-71
2023/06/19 03:14:35;;;;;;;20.77;14.43;;;19.80;99.90;;;;;;4970952;28;20447;-72
2023/06/19 03:17:02;;;;;;;20.40;15.57;;;19.70;99.90;;;;;;4971282;28;20492;-71
2023/06/19 03:19:29;;;;;;;17.43;15.50;;;19.70;99.90;;;;;;4971588;28;20456;-71
2023/06/19 03:21:55;;;;;;;26.67;17.10;;;19.60;99.90;;;;;;4971057;28;20502;-72
2023/06/19 03:24:23;;;;;;;19.90;16.70;;;19.60;99.90;;;;;;4970716;28;21058;-72
2023/06/19 03:26:50;;;;;;;18.13;16.00;;;19.60;99.90;;;;;;4971254;28;20448;-71
2023/06/19 03:29:16;;;;;;;18.83;16.47;;;19.60;99.90;;;;;;4970377;28;20502;-71
2023/06/19 03:31:43;;;;;;;27.43;16.50;;;19.50;99.90;;;;;;4971725;28;20456;-72
2023/06/19 03:34:10;;;;;;;22.50;17.03;;;19.50;99.90;;;;;;4970695;28;20472;-72
2023/06/19 03:36:36;;;;;;;21.90;16.77;;;19.50;99.90;;;;;;4971014;28;20911;-71
2023/06/19 03:39:03;;;;;;;28.30;15.60;;;19.50;99.90;;;;;;4971459;28;20455;-71
2023/06/19 03:41:31;;;;;;;22.50;15.90;;;19.60;99.90;;;;;;4970641;28;20470;-71
2023/06/19 03:43:58;;;;;;;21.03;15.53;;;19.60;99.90;;;;;;4970309;28;20476;-72
2023/06/19 03:46:24;;;;;;;18.87;15.73;;;19.60;99.90;;;;;;4970734;28;21118;-70
2023/06/19 03:48:51;;;;;;;19.63;14.67;;;19.60;99.90;;;;;;4971492;28;21588;-69
2023/06/19 03:51:17;;;;;;;21.30;14.37;;;19.60;99.90;;;;;;4970853;28;20502;-72
2023/06/19 03:53:44;;;;;;;17.33;14.07;;;19.50;99.90;;;;;;4970878;28;20484;-72
2023/06/19 03:56:11;;;;;;;25.90;12.60;;;19.50;99.90;;;;;;4969331;28;20442;-72
2023/06/19 03:58:39;;;;;;;17.70;13.23;;;19.50;99.90;;;;;;4969198;28;20473;-71
2023/06/19 04:01:05;;;;;;;14.33;11.67;;;19.50;99.90;;;;;;4969683;28;20463;-72
2023/06/19 04:03:32;;;;;;;13.60;11.07;;;19.60;99.90;;;;;;4969070;28;20472;-72
2023/06/19 04:05:59;;;;;;;19.80;10.60;;;19.60;99.90;;;;;;4969482;28;20515;-72
2023/06/19 04:08:26;;;;;;;13.23;10.90;;;19.60;99.90;;;;;;4969238;28;20507;-72
2023/06/19 04:12:33;;;;;;;14.87;10.37;;;19.60;99.90;;;;;;5008952;27;20578;-73
2023/06/19 04:15:00;;;;;;;11.03;10.03;;;19.70;99.90;;;;;;5023224;28;20492;-73
2023/06/19 04:17:27;;;;;;;16.20;10.13;;;19.80;99.90;;;;;;5023106;28;20458;-73
2023/06/19 04:19:53;;;;;;;19.60;11.60;;;20.00;99.90;;;;;;5023086;28;20477;-73
2023/06/19 04:22:20;;;;;;;14.73;11.20;;;20.10;99.90;;;;;;5022637;28;21005;-73
2023/06/19 04:24:47;;;;;;;18.00;11.00;;;20.10;99.90;;;;;;4974151;28;20486;-73
2023/06/19 04:27:13;;;;;;;14.27;10.80;;;20.20;99.90;;;;;;5013964;28;20471;-73
2023/06/19 04:29:41;;;;;;;25.43;13.07;;;20.20;99.90;;;;;;5013801;28;20453;-73
2023/06/19 04:32:11;;;;;;;16.97;13.90;;;20.20;99.90;;;;;;5013559;28;20560;-73
2023/06/19 04:34:38;;;;;;;18.37;14.40;;;20.10;99.90;;;;;;5013392;28;20461;-73
2023/06/19 04:37:06;;;;;;;23.23;14.10;;;20.00;99.90;;;;;;5013865;28;21413;-73
2023/06/19 04:39:32;;;;;;;19.10;13.30;;;20.00;99.90;;;;;;5012870;28;20833;-75
2023/06/19 04:42:00;;;;;;;18.07;13.40;;;20.00;99.90;;;;;;5013366;28;20449;-72
2023/06/19 04:44:26;;;;;;;23.20;14.20;;;20.00;99.90;;;;;;5011721;28;20903;-72
2023/06/19 04:47:00;;;;;;;20.63;14.60;;;20.10;99.90;;;;;;5007326;28;20457;-72
2023/06/19 04:49:29;;;;;;;19.07;14.40;;;20.00;99.90;;;;;;5013220;28;20496;-73
2023/06/19 04:51:56;;;;;;;22.03;14.90;;;20.00;99.90;;;;;;5012779;28;20974;-72
2023/06/19 04:54:23;;;;;;;23.10;14.77;;;20.00;99.90;;;;;;5012424;28;20477;-72
2023/06/19 04:56:49;;;;;;;16.93;15.00;;;20.00;99.90;;;;;;5013456;28;20860;-72
2023/06/19 04:59:17;;;;;;;25.67;15.10;;;20.00;99.90;;;;;;5013771;28;20449;-72
2023/06/19 05:01:45;;;;;;;32.30;14.73;;;20.10;99.90;;;;;;5012995;28;20469;-73
2023/06/19 05:04:13;;;;;;;22.33;15.60;;;20.00;99.90;;;;;;5012960;28;20477;-73
2023/06/19 05:06:39;;;;;;;22.77;15.93;;;20.00;99.90;;;;;;5012278;28;20529;-72
2023/06/19 05:09:06;;;;;;;25.60;15.43;;;20.00;99.90;;;;;;5013468;28;20449;-73
2023/06/19 05:11:33;;;;;;;20.73;16.00;;;20.20;99.90;;;;;;5012278;28;20489;-73
2023/06/19 05:13:59;;;;;;;20.47;15.77;;;20.20;99.90;;;;;;5012512;28;20477;-74
2023/06/19 05:16:26;;;;;;;25.03;15.50;;;20.30;99.90;;;;;;5012660;28;20463;-73
2023/06/19 05:18:53;;;;;;;22.23;15.63;;;20.40;99.90;;;;;;5013376;28;20516;-73
2023/06/19 05:21:21;;;;;;;19.23;14.40;;;20.60;99.90;;;;;;5011918;28;21199;-73
2023/06/19 05:23:50;;;;;;;21.10;15.27;;;20.80;99.90;;;;;;4999954;28;20593;-72
2023/06/19 05:26:17;;;;;;;18.97;14.60;;;21.00;99.90;;;;;;5000118;28;20537;-72
2023/06/19 05:28:44;;;;;;;21.00;14.20;;;21.10;99.90;;;;;;4999741;28;20501;-72
2023/06/19 05:31:10;;;;;;;20.30;14.43;;;21.20;99.90;;;;;;4997641;28;20557;-73
2023/06/19 05:33:37;;;;;;;17.33;12.77;;;21.30;99.90;;;;;;4997911;28;20470;-72
2023/06/19 05:36:04;;;;;;;20.27;12.07;;;21.30;99.90;;;;;;4996811;28;20458;-72
2023/06/19 05:38:32;;;;;;;16.73;13.93;;;21.30;99.90;;;;;;4997059;28;20462;-72
2023/06/19 05:40:59;;;;;;;15.07;13.57;;;21.40;99.90;;;;;;4996720;28;20539;-72
2023/06/19 05:43:26;;;;;;;20.67;13.60;;;21.50;99.90;;;;;;4997094;28;20497;-72
2023/06/19 05:45:53;;;;;;;20.27;12.70;;;21.40;99.90;;;;;;4997215;28;20544;-72
2023/06/19 05:48:20;;;;;;;18.30;11.77;;;21.40;99.90;;;;;;4997468;28;20463;-72
2023/06/19 05:50:46;;;;;;;26.43;14.20;;;21.30;99.90;;;;;;4998675;28;20517;-72
2023/06/19 05:53:13;;;;;;;18.10;11.20;;;21.40;99.90;;;;;;4997778;28;20560;-72
2023/06/19 05:55:41;;;;;;;13.40;8.60;;;21.40;99.90;;;;;;4998190;28;20442;-72
2023/06/19 05:58:08;;;;;;;5.90;5.30;;;21.40;99.90;;;;;;4998796;28;20458;-72
2023/06/19 06:00:34;;;;;;;5.20;4.80;;;21.60;99.90;;;;;;4998713;28;20510;-72
2023/06/19 06:03:02;;;;;;;5.13;4.73;;;21.80;99.90;;;;;;4999022;28;20489;-72
2023/06/19 06:05:29;;;;;;;6.33;4.67;;;22.10;99.90;;;;;;4998221;28;20479;-72
2023/06/19 06:07:56;;;;;;;5.07;4.67;;;22.50;99.90;;;;;;4998097;28;20895;-73
2023/06/19 06:10:23;;;;;;;5.70;5.10;;;22.70;99.90;;;;;;4998437;28;20447;-72
2023/06/19 06:12:52;;;;;;;4.33;4.03;;;23.10;99.90;;;;;;4997732;28;20494;-73
2023/06/19 06:15:18;;;;;;;5.10;4.70;;;23.30;99.90;;;;;;4997408;28;20876;-74
2023/06/19 06:17:45;;;;;;;5.47;4.70;;;23.50;99.90;;;;;;4998202;28;20454;-74
2023/06/19 06:20:13;;;;;;;5.43;4.20;;;23.60;99.90;;;;;;4998425;28;20461;-75
2023/06/19 06:22:39;;;;;;;4.00;3.60;;;23.80;99.90;;;;;;4998079;28;20530;-75
2023/06/19 06:25:07;;;;;;;5.70;4.67;;;23.80;99.90;;;;;;4997820;28;21115;-75
2023/06/19 06:27:34;;;;;;;5.73;4.70;;;23.90;99.90;;;;;;4998774;28;20460;-77
2023/06/19 06:30:03;;;;;;;4.73;4.20;;;23.90;99.90;;;;;;4998956;28;20455;-75
2023/06/19 06:32:31;;;;;;;5.03;4.60;;;23.90;99.90;;;;;;4997862;28;20498;-74
2023/06/19 06:34:58;;;;;;;4.33;4.03;;;23.90;99.90;;;;;;4996498;28;20486;-74
2023/06/19 06:37:25;;;;;;;3.93;3.63;;;24.20;99.90;;;;;;4995827;28;20471;-75
2023/06/19 06:39:52;;;;;;;5.83;4.40;;;24.30;99.90;;;;;;4995607;28;20450;-74
2023/06/19 06:42:19;;;;;;;4.47;3.90;;;24.40;99.90;;;;;;4996372;28;21049;-75
2023/06/19 06:44:46;;;;;;;3.83;3.53;;;24.60;99.90;;;;;;4995014;28;20460;-76
2023/06/19 06:47:14;;;;;;;4.50;4.10;;;24.90;99.90;;;;;;4997887;28;20467;-75
2023/06/19 06:49:41;;;;;;;5.67;4.40;;;25.20;99.90;;;;;;4998320;28;20536;-75
2023/06/19 06:52:08;;;;;;;4.67;4.27;;;25.50;99.90;;;;;;4998025;28;21152;-75
2023/06/19 06:54:34;;;;;;;3.93;3.63;;;25.70;99.90;;;;;;4997812;28;20574;-75
2023/06/19 06:57:01;;;;;;;4.80;4.40;;;25.70;99.90;;;;;;4998034;28;20989;-75
2023/06/19 06:59:28;;;;;;;5.37;4.10;;;25.70;99.90;;;;;;4997653;28;20948;-75
2023/06/19 07:01:56;;;;;;;4.60;4.20;;;25.70;99.90;;;;;;4998086;28;20450;-75
2023/06/19 07:04:24;;;;;;;4.53;4.13;;;25.90;99.90;;;;;;4996094;28;20987;-73
2023/06/19 07:06:50;;;;;;;4.70;4.30;;;25.60;99.90;;;;;;4997291;28;20451;-75
2023/06/19 07:09:17;;;;;;;7.50;4.23;;;25.70;99.90;;;;;;4997790;28;20458;-74
2023/06/19 07:11:44;;;;;;;4.37;3.97;;;25.90;99.90;;;;;;4995862;28;20560;-74
2023/06/19 07:14:11;;;;;;;4.43;4.03;;;25.80;99.90;;;;;;4997191;28;20482;-75
2023/06/19 07:16:37;;;;;;;5.00;4.60;;;25.60;99.90;;;;;;4995639;28;21107;-75
2023/06/19 07:19:04;;;;;;;6.50;4.10;;;25.40;99.90;;;;;;4996473;28;20516;-75
2023/06/19 07:21:32;;;;;;;4.80;4.40;;;25.20;99.90;;;;;;4997034;28;20506;-75
2023/06/19 07:24:00;;;;;;;8.50;4.50;;;25.20;99.90;;;;;;4996780;28;20474;-75
2023/06/19 07:26:26;;;;;;;4.67;4.30;;;25.50;99.90;;;;;;4997277;28;20458;-71
2023/06/19 07:28:53;;;;;;;6.73;4.37;;;25.90;99.90;;;;;;4997515;28;20447;-71
2023/06/19 07:31:20;;;;;;;5.23;4.73;;;26.20;99.90;;;;;;4997098;28;20451;-71
2023/06/19 07:33:46;;;;;;;6.10;4.93;;;26.50;99.90;;;;;;4996835;28;20987;-71
2023/06/19 07:36:14;;;;;;;6.30;5.80;;;26.40;99.90;;;;;;4997353;28;20458;-70
2023/06/19 07:38:42;;;;;;;5.67;5.17;;;26.30;99.90;;;;;;4997304;28;20462;-71
2023/06/19 07:41:09;;;;;;;7.07;5.50;;;26.20;99.90;;;;;;4997239;28;20529;-71
2023/06/19 07:43:36;;;;;;;6.60;5.33;;;26.10;99.90;;;;;;4996677;28;20462;-71
2023/06/19 07:46:03;;;;;;;7.17;5.00;;;26.00;99.90;;;;;;4996492;28;20446;-71
2023/06/19 07:48:29;;;;;;;5.97;5.37;;;26.10;99.90;;;;;;4997040;28;20807;-71
2023/06/19 07:50:56;;;;;;;6.53;5.33;;;26.20;99.90;;;;;;4996929;28;20451;-71
2023/06/19 07:53:23;;;;;;;5.70;5.20;;;26.30;99.90;;;;;;4995886;28;20553;-72
2023/06/19 07:55:51;;;;;;;11.80;5.70;;;26.30;99.90;;;;;;4996432;28;20458;-71
2023/06/19 07:58:18;;;;;;;6.60;6.00;;;26.40;99.90;;;;;;4996799;28;20998;-72
2023/06/19 08:00:44;;;;;;;7.43;6.03;;;26.40;99.90;;;;;;4994609;28;20478;-70
2023/06/19 08:03:11;;;;;;;6.20;5.50;;;26.60;99.90;;;;;;4996796;28;20535;-71
2023/06/19 08:05:38;;;;;;;6.20;5.70;;;26.80;99.90;;;;;;4995539;28;20513;-71
2023/06/19 08:08:05;;;;;;;6.33;5.80;;;26.70;99.90;;;;;;4995695;28;20939;-72
2023/06/19 08:10:31;;;;;;;10.37;6.27;;;26.80;99.90;;;;;;4996036;28;20455;-71
2023/06/19 08:12:59;;;;;;;8.73;6.20;;;26.80;99.90;;;;;;4996392;28;20493;-71
2023/06/19 08:15:26;;;;;;;6.60;5.80;;;26.80;99.90;;;;;;4996534;28;20527;-71
2023/06/19 08:17:53;;;;;;;6.83;6.13;;;26.60;99.90;;;;;;4996703;28;20489;-72
2023/06/19 08:20:20;;;;;;;6.70;6.10;;;26.50;99.90;;;;;;4996723;28;20541;-72
2023/06/19 08:22:47;;;;;;;7.00;6.40;;;26.50;99.90;;;;;;4995825;28;20484;-72
2023/06/19 08:25:14;;;;;;;7.13;6.37;;;26.40;99.90;;;;;;4996311;28;20501;-71
2023/06/19 08:27:40;;;;;;;7.30;6.10;;;26.30;99.90;;;;;;4995331;28;20454;-71
2023/06/19 08:30:09;;;;;;;6.40;5.80;;;26.30;99.90;;;;;;4995926;28;20459;-71
2023/06/19 08:32:36;;;;;;;6.90;6.30;;;26.30;99.90;;;;;;4996317;28;20565;-71
2023/06/19 08:35:02;;;;;;;10.23;6.40;;;26.30;99.90;;;;;;4996270;28;20522;-72
2023/06/19 08:37:29;;;;;;;7.83;7.00;;;26.30;99.90;;;;;;4996729;28;20508;-71
2023/06/19 08:39:56;;;;;;;6.80;6.10;;;26.00;99.90;;;;;;4996577;28;20454;-71
2023/06/19 08:42:23;;;;;;;6.63;5.97;;;25.90;99.90;;;;;;4995773;28;21275;-71
2023/06/19 08:44:50;;;;;;;7.70;6.80;;;26.10;99.90;;;;;;4995679;28;20967;-71
2023/06/19 08:47:18;;;;;;;7.70;6.33;;;26.00;99.90;;;;;;4996510;28;20450;-72
2023/06/19 08:49:44;;;;;;;7.20;5.90;;;26.40;99.90;;;;;;4996398;28;20518;-72
2023/06/19 08:52:11;;;;;;;6.00;5.50;;;26.70;99.90;;;;;;4995954;28;20491;-72
2023/06/19 08:54:43;;;;;;;6.53;5.37;;;27.00;99.90;;;;;;4995151;28;20563;-72
2023/06/19 08:57:10;;;;;;;6.40;5.90;;;27.10;99.90;;;;;;4996515;28;20454;-71
2023/06/19 08:59:37;;;;;;;8.00;5.90;;;27.20;99.90;;;;;;4999483;28;20455;-72
2023/06/19 09:02:04;;;;;;;6.17;5.63;;;27.50;99.90;;;;;;4998907;28;20514;-71
2023/06/19 09:04:32;;;;;;;7.03;5.73;;;27.60;99.90;;;;;;4999897;28;20458;-71
2023/06/19 09:07:00;;;;;;;7.30;6.00;;;27.60;99.90;;;;;;4998213;28;20462;-71
2023/06/19 09:09:27;;;;;;;6.10;5.60;;;27.70;99.90;;;;;;4999522;28;20947;-71
2023/06/19 09:12:01;;;;;;;5.63;5.13;;;27.60;99.90;;;;;;4997724;28;20474;-71
2023/06/19 09:14:35;;;;;;;5.93;4.83;;;27.50;99.90;;;;;;4999492;28;20867;-71
2023/06/19 09:17:03;;;;;;;7.83;5.80;;;27.40;99.90;;;;;;4998713;28;20880;-71
2023/06/19 09:19:30;;;;;;;6.00;5.40;;;27.60;99.90;;;;;;4998706;28;20456;-71
2023/06/19 09:22:02;;;;;;;6.00;5.50;;;28.00;99.90;;;;;;4998234;28;20450;-71
2023/06/19 09:24:35;;;;;;;5.80;5.10;;;28.30;99.90;;;;;;4999712;28;20461;-70
2023/06/19 09:27:07;;;;;;;7.60;5.23;;;28.40;99.90;;;;;;4998870;28;20921;-70
2023/06/19 09:29:37;;;;;;;5.10;4.60;;;28.80;99.90;;;;;;4998770;28;20451;-70
2023/06/19 09:32:15;;;;;;;5.30;4.80;;;28.80;99.90;;;;;;4999503;28;20455;-69
2023/06/19 09:34:41;;;;;;;7.20;5.30;;;28.70;99.90;;;;;;4997347;28;20457;-70
2023/06/19 09:37:10;;;;;;;6.07;5.47;;;28.80;99.90;;;;;;4999172;28;20888;-69
2023/06/19 09:39:38;;;;;;;5.40;4.90;;;28.60;99.90;;;;;;4999231;28;20466;-70
2023/06/19 09:42:08;;;;;;;5.60;5.10;;;28.40;99.90;;;;;;4999432;28;20458;-69
2023/06/19 09:44:41;;;;;;;6.07;5.47;;;28.20;99.90;;;;;;4998288;28;20470;-70
2023/06/19 09:47:18;;;;;;;5.57;5.07;;;27.90;99.90;;;;;;4999660;28;20946;-72
2023/06/19 09:49:50;;;;;;;5.50;5.10;;;27.80;99.90;;;;;;4999846;28;20459;-73
2023/06/19 09:52:20;;;;;;;5.90;5.40;;;28.10;99.90;;;;;;4998118;28;20474;-73
2023/06/19 09:54:47;;;;;;;5.53;5.03;;;28.30;99.90;;;;;;4999515;28;21019;-74
2023/06/19 09:57:14;;;;;;;4.90;4.50;;;28.00;99.90;;;;;;5000045;28;20450;-72
2023/06/19 09:59:43;;;;;;;5.67;5.17;;;27.90;99.90;;;;;;4999632;28;20469;-73
2023/06/19 10:02:11;;;;;;;5.40;4.90;;;27.80;99.90;;;;;;4997522;28;20455;-73
2023/06/19 10:04:46;;;;;;;5.03;4.50;;;27.90;99.90;;;;;;4999041;28;20533;-73
2023/06/19 10:07:22;;;;;;;5.17;4.40;;;28.00;99.90;;;;;;4998609;28;20521;-73
2023/06/19 10:09:59;;;;;;;5.47;4.60;;;28.10;99.90;;;;;;4998489;28;20451;-72
2023/06/19 10:12:40;;;;;;;5.10;4.60;;;28.20;99.90;;;;;;4997841;28;20559;-72
2023/06/19 10:15:16;;;;;;;5.40;5.00;;;28.40;99.90;;;;;;4998006;28;20518;-73
2023/06/19 10:17:48;;;;;;;4.67;4.27;;;28.50;99.90;;;;;;4998500;28;20451;-73
2023/06/19 10:20:24;;;;;;;5.20;4.40;;;28.60;99.90;;;;;;4998639;28;20468;-73
2023/06/19 10:22:53;;;;;;;5.43;4.93;;;28.60;99.90;;;;;;4997668;28;20505;-73
2023/06/19 10:25:24;;;;;;;4.63;4.33;;;28.50;99.90;;;;;;4998910;28;20455;-73
2023/06/19 10:27:52;;;;;;;5.03;4.57;;;28.30;99.90;;;;;;4997711;28;20457;-72
2023/06/19 10:30:19;;;;;;;5.40;4.90;;;28.40;99.90;;;;;;4998443;28;20459;-73
2023/06/19 10:32:46;;;;;;;4.53;4.20;;;28.60;99.90;;;;;;4997036;28;21152;-71
2023/06/19 10:35:13;;;;;;;5.77;4.97;;;28.50;99.90;;;;;;4997393;28;20454;-74
2023/06/19 10:37:39;;;;;;;5.03;4.63;;;28.50;99.90;;;;;;4998259;28;20457;-71
2023/06/19 10:40:10;;;;;;;7.20;4.30;;;28.30;99.90;;;;;;4997867;28;20926;-71
2023/06/19 10:42:37;;;;;;;6.90;5.10;;;28.20;99.90;;;;;;4997764;28;20499;-71
2023/06/19 10:45:06;;;;;;;4.20;3.90;;;28.10;99.90;;;;;;4996825;28;20458;-72
2023/06/19 10:47:33;;;;;;;4.97;4.40;;;28.20;99.90;;;;;;4998198;28;20446;-72
2023/06/19 10:50:00;;;;;;;4.70;4.30;;;28.20;99.90;;;;;;4997939;28;20520;-72
2023/06/19 10:52:29;;;;;;;5.80;4.20;;;28.20;99.90;;;;;;4996710;28;20536;-70
2023/06/19 10:54:56;;;;;;;5.37;4.97;;;28.00;99.90;;;;;;4997531;28;20468;-72
2023/06/19 10:57:29;;;;;;;5.60;4.30;;;28.00;99.90;;;;;;4997073;28;20457;-72
2023/06/19 10:59:56;;;;;;;4.70;4.30;;;28.00;99.90;;;;;;4997646;28;20200;-71
2023/06/19 11:02:23;;;;;;;4.93;4.53;;;28.00;99.90;;;;;;4997356;28;20487;-72
2023/06/19 11:04:49;;;;;;;4.30;4.00;;;28.10;99.90;;;;;;4996531;28;20450;-70
2023/06/19 11:07:16;;;;;;;5.57;4.13;;;28.10;99.90;;;;;;4997551;28;20458;-72
2023/06/19 11:09:43;;;;;;;6.30;5.70;;;28.10;99.90;;;;;;4997319;28;20508;-72
2023/06/19 11:12:10;;;;;;;13.73;6.10;;;27.90;99.90;;;;;;4995984;28;20462;-72
2023/06/19 11:14:39;;;;;;;13.20;6.10;;;27.80;99.90;;;;;;4996523;28;20482;-72
2023/06/19 11:17:07;;;;;;;6.53;5.80;;;27.70;99.90;;;;;;4996128;28;20969;-72
2023/06/19 11:19:34;;;;;;;9.50;5.80;;;27.50;99.90;;;;;;4997242;28;21010;-71
2023/06/19 11:22:02;;;;;;;7.93;5.77;;;27.60;99.90;;;;;;4996536;28;20459;-72
2023/06/19 11:24:29;;;;;;;6.60;6.00;;;27.70;99.90;;;;;;4997569;28;20505;-69
2023/06/19 11:26:58;;;;;;;16.57;14.17;;;27.80;99.90;;;;;;4997024;28;21112;-71
2023/06/19 11:29:26;;;;;;;6.77;6.07;;;27.80;99.90;;;;;;4996952;28;20471;-70
2023/06/19 11:32:06;;;;;;;18.77;12.73;;;27.80;99.90;;;;;;4996968;28;20471;-72
2023/06/19 11:34:34;;;;;;;10.27;5.90;;;28.00;99.90;;;;;;4997301;28;20494;-71
2023/06/19 11:37:00;;;;;;;6.50;5.90;;;27.90;99.90;;;;;;4998906;28;20451;-73
2023/06/19 11:39:28;;;;;;;6.30;5.70;;;27.90;99.90;;;;;;4996727;28;20523;-72
2023/06/19 11:41:55;;;;;;;9.97;5.53;;;27.90;99.90;;;;;;4996312;28;20463;-72
2023/06/19 11:44:22;;;;;;;7.00;6.00;;;27.90;99.90;;;;;;4997614;28;20482;-72
2023/06/19 11:46:48;;;;;;;6.90;6.20;;;28.30;99.90;;;;;;4997029;28;20513;-72
2023/06/19 11:49:18;;;;;;;9.63;6.07;;;28.60;99.90;;;;;;4996999;28;20504;-73
2023/06/19 11:51:45;;;;;;;6.60;6.10;;;28.50;99.90;;;;;;4996561;28;20447;-72
2023/06/19 11:54:14;;;;;;;6.33;5.73;;;28.40;99.90;;;;;;4996991;28;20491;-72
2023/06/19 11:56:41;;;;;;;8.20;5.80;;;28.20;99.90;;;;;;4996445;28;20446;-73
2023/06/19 11:59:08;;;;;;;6.47;5.93;;;28.10;99.90;;;;;;4996150;28;20455;-73
2023/06/19 12:01:36;;;;;;;13.43;6.47;;;28.10;99.90;;;;;;4996372;28;20549;-73
2023/06/19 12:04:03;;;;;;;6.33;5.73;;;28.10;99.90;;;;;;4996436;28;20517;-73
2023/06/19 12:06:31;;;;;;;10.47;5.83;;;28.00;99.90;;;;;;4997186;28;20486;-72
2023/06/19 12:08:58;;;;;;;7.03;6.03;;;28.00;99.90;;;;;;4994691;28;20451;-73
2023/06/19 12:11:25;;;;;;;12.80;6.27;;;28.10;99.90;;;;;;4995774;28;20247;-72
2023/06/19 12:13:53;;;;;;;6.83;5.73;;;28.40;99.90;;;;;;4996448;28;21130;-72
2023/06/19 12:16:19;;;;;;;9.00;6.23;;;28.50;99.90;;;;;;4995764;28;20548;-72
2023/06/19 12:18:46;;;;;;;6.37;5.77;;;28.40;99.90;;;;;;4996654;28;20500;-72
2023/06/19 12:21:13;;;;;;;7.17;5.73;;;28.40;99.90;;;;;;4995515;28;20459;-72
2023/06/19 12:23:41;;;;;;;7.60;5.43;;;28.40;99.90;;;;;;4996522;28;20479;-72
2023/06/19 12:26:07;;;;;;;9.83;5.93;;;28.40;99.90;;;;;;4996257;28;20458;-72
2023/06/19 12:28:34;;;;;;;5.90;5.33;;;28.30;99.90;;;;;;4996636;28;21001;-72
2023/06/19 12:31:03;;;;;;;7.67;5.53;;;28.50;99.90;;;;;;4995910;28;20457;-72
2023/06/19 12:33:32;;;;;;;5.77;4.80;;;28.60;99.90;;;;;;4998979;28;20575;-72
2023/06/19 12:35:59;;;;;;;5.97;5.37;;;28.90;99.90;;;;;;5000516;28;20466;-72
2023/06/19 12:38:26;;;;;;;6.40;4.90;;;28.90;99.90;;;;;;5000738;28;20498;-72
2023/06/19 12:40:54;;;;;;;5.50;5.00;;;28.80;99.90;;;;;;5000379;28;20450;-73